sensor_id;sensor_type;location;lat;lon;timestamp;P1;durP1;ratioP1;P2;durP2;ratioP2
75417;SDS011;63997;52.112;5.420;2024-01-16T00:02:12;7.97;;;0.50;;
75417;SDS011;63997;52.112;5.420;2024-01-16T00:04:39;8.98;;;0.50;;
75417;SDS011;63997;52.112;5.420;2024-01-16T00:07:07;5.78;;;0.68;;
75417;SDS011;63997;52.112;5.420;2024-01-16T00:09:33;2.15;;;0.35;;
75417;SDS011;63997;52.112;5.420;2024-01-16T00:12:01;5.07;;;0.97;;
75417;SDS011;63997;52.112;5.420;2024-01-16T00:14:30;6.65;;;0.50;;
75417;SDS011;63997;52.112;5.420;2024-01-16T00:16:56;3.53;;;0.75;;
75417;SDS011;63997;52.112;5.420;2024-01-16T00:19:23;4.00;;;0.40;;
75417;SDS011;63997;52.112;5.420;2024-01-16T00:21:49;7.07;;;0.38;;
75417;SDS011;63997;52.112;5.420;2024-01-16T00:24:17;4.70;;;0.43;;
75417;SDS011;63997;52.112;5.420;2024-01-16T00:26:44;2.45;;;0.65;;
75417;SDS011;63997;52.112;5.420;2024-01-16T00:29:10;3.63;;;0.70;;
75417;SDS011;63997;52.112;5.420;2024-01-16T00:31:39;5.43;;;0.82;;
75417;SDS011;63997;52.112;5.420;2024-01-16T00:34:05;3.22;;;0.32;;
75417;SDS011;63997;52.112;5.420;2024-01-16T00:36:32;7.20;;;0.60;;
75417;SDS011;63997;52.112;5.420;2024-01-16T00:38:59;5.13;;;0.43;;
75417;SDS011;63997;52.112;5.420;2024-01-16T00:41:26;6.68;;;0.98;;
75417;SDS011;63997;52.112;5.420;2024-01-16T00:43:53;5.18;;;0.82;;
75417;SDS011;63997;52.112;5.420;2024-01-16T00:46:19;3.25;;;0.50;;
75417;SDS011;63997;52.112;5.420;2024-01-16T00:48:46;5.83;;;0.57;;
75417;SDS011;63997;52.112;5.420;2024-01-16T00:51:14;3.42;;;0.30;;
75417;SDS011;63997;52.112;5.420;2024-01-16T00:53:41;6.30;;;0.73;;
75417;SDS011;63997;52.112;5.420;2024-01-16T00:56:08;2.15;;;0.52;;
75417;SDS011;63997;52.112;5.420;2024-01-16T00:58:35;3.05;;;0.70;;
75417;SDS011;63997;52.112;5.420;2024-01-16T01:01:02;6.50;;;0.77;;
75417;SDS011;63997;52.112;5.420;2024-01-16T01:03:28;3.25;;;0.60;;
75417;SDS011;63997;52.112;5.420;2024-01-16T01:05:55;5.55;;;0.50;;
75417;SDS011;63997;52.112;5.420;2024-01-16T01:08:22;2.45;;;0.65;;
75417;SDS011;63997;52.112;5.420;2024-01-16T01:10:48;4.78;;;0.30;;
75417;SDS011;63997;52.112;5.420;2024-01-16T01:13:15;4.90;;;0.70;;
75417;SDS011;63997;52.112;5.420;2024-01-16T01:15:41;5.07;;;0.50;;
75417;SDS011;63997;52.112;5.420;2024-01-16T01:18:08;5.40;;;0.73;;
75417;SDS011;63997;52.112;5.420;2024-01-16T01:20:35;5.65;;;0.40;;
75417;SDS011;63997;52.112;5.420;2024-01-16T01:23:02;6.05;;;0.70;;
75417;SDS011;63997;52.112;5.420;2024-01-16T01:25:29;5.77;;;0.70;;
75417;SDS011;63997;52.112;5.420;2024-01-16T01:27:55;7.55;;;0.47;;
75417;SDS011;63997;52.112;5.420;2024-01-16T01:30:22;5.10;;;0.40;;
75417;SDS011;63997;52.112;5.420;2024-01-16T01:32:48;2.22;;;0.50;;
75417;SDS011;63997;52.112;5.420;2024-01-16T01:35:16;5.53;;;0.30;;
75417;SDS011;63997;52.112;5.420;2024-01-16T01:37:43;3.47;;;0.53;;
75417;SDS011;63997;52.112;5.420;2024-01-16T01:40:10;3.78;;;0.55;;
75417;SDS011;63997;52.112;5.420;2024-01-16T01:42:40;4.22;;;0.73;;
75417;SDS011;63997;52.112;5.420;2024-01-16T01:45:08;3.53;;;0.70;;
75417;SDS011;63997;52.112;5.420;2024-01-16T01:47:36;3.75;;;0.45;;
75417;SDS011;63997;52.112;5.420;2024-01-16T01:50:04;3.20;;;0.70;;
75417;SDS011;63997;52.112;5.420;2024-01-16T01:52:33;6.68;;;0.70;;
75417;SDS011;63997;52.112;5.420;2024-01-16T01:55:00;2.90;;;0.60;;
75417;SDS011;63997;52.112;5.420;2024-01-16T01:57:29;5.88;;;0.50;;
75417;SDS011;63997;52.112;5.420;2024-01-16T01:59:56;1.35;;;0.47;;
75417;SDS011;63997;52.112;5.420;2024-01-16T02:02:22;5.33;;;0.37;;
75417;SDS011;63997;52.112;5.420;2024-01-16T02:04:49;6.07;;;0.43;;
75417;SDS011;63997;52.112;5.420;2024-01-16T02:07:17;1.08;;;0.25;;
75417;SDS011;63997;52.112;5.420;2024-01-16T02:09:44;4.38;;;0.47;;
75417;SDS011;63997;52.112;5.420;2024-01-16T02:12:10;1.85;;;0.30;;
75417;SDS011;63997;52.112;5.420;2024-01-16T02:14:37;6.03;;;0.50;;
75417;SDS011;63997;52.112;5.420;2024-01-16T02:17:03;4.15;;;0.50;;
75417;SDS011;63997;52.112;5.420;2024-01-16T02:19:30;6.43;;;0.80;;
75417;SDS011;63997;52.112;5.420;2024-01-16T02:21:59;3.42;;;0.45;;
75417;SDS011;63997;52.112;5.420;2024-01-16T02:24:27;3.40;;;0.75;;
75417;SDS011;63997;52.112;5.420;2024-01-16T02:26:53;2.70;;;0.40;;
75417;SDS011;63997;52.112;5.420;2024-01-16T02:29:20;2.65;;;0.50;;
75417;SDS011;63997;52.112;5.420;2024-01-16T02:31:46;6.00;;;0.77;;
75417;SDS011;63997;52.112;5.420;2024-01-16T02:34:13;4.10;;;0.38;;
75417;SDS011;63997;52.112;5.420;2024-01-16T02:36:40;2.22;;;0.40;;
75417;SDS011;63997;52.112;5.420;2024-01-16T02:39:06;2.93;;;0.70;;
75417;SDS011;63997;52.112;5.420;2024-01-16T02:41:33;2.47;;;0.40;;
75417;SDS011;63997;52.112;5.420;2024-01-16T02:43:59;3.40;;;0.30;;
75417;SDS011;63997;52.112;5.420;2024-01-16T02:46:26;7.25;;;0.50;;
75417;SDS011;63997;52.112;5.420;2024-01-16T02:48:52;4.60;;;0.32;;
75417;SDS011;63997;52.112;5.420;2024-01-16T02:51:19;1.83;;;0.40;;
75417;SDS011;63997;52.112;5.420;2024-01-16T02:53:45;4.68;;;0.77;;
75417;SDS011;63997;52.112;5.420;2024-01-16T02:56:12;7.25;;;0.60;;
75417;SDS011;63997;52.112;5.420;2024-01-16T02:58:39;1.48;;;0.30;;
75417;SDS011;63997;52.112;5.420;2024-01-16T03:01:05;6.88;;;0.50;;
75417;SDS011;63997;52.112;5.420;2024-01-16T03:03:32;2.47;;;0.40;;
75417;SDS011;63997;52.112;5.420;2024-01-16T03:05:58;3.80;;;0.25;;
75417;SDS011;63997;52.112;5.420;2024-01-16T03:08:26;1.23;;;0.30;;
75417;SDS011;63997;52.112;5.420;2024-01-16T03:10:52;3.97;;;0.57;;
75417;SDS011;63997;52.112;5.420;2024-01-16T03:13:18;1.90;;;0.70;;
75417;SDS011;63997;52.112;5.420;2024-01-16T03:15:45;0.90;;;0.20;;
75417;SDS011;63997;52.112;5.420;2024-01-16T03:18:12;0.50;;;0.22;;
75417;SDS011;63997;52.112;5.420;2024-01-16T03:20:39;2.92;;;0.17;;
75417;SDS011;63997;52.112;5.420;2024-01-16T03:23:05;0.82;;;0.10;;
75417;SDS011;63997;52.112;5.420;2024-01-16T03:25:32;1.20;;;0.20;;
75417;SDS011;63997;52.112;5.420;2024-01-16T03:28:03;0.23;;;0.10;;
75417;SDS011;63997;52.112;5.420;2024-01-16T03:30:30;0.50;;;0.30;;
75417;SDS011;63997;52.112;5.420;2024-01-16T03:32:57;2.45;;;0.50;;
75417;SDS011;63997;52.112;5.420;2024-01-16T03:35:23;0.70;;;0.20;;
75417;SDS011;63997;52.112;5.420;2024-01-16T03:37:50;0.55;;;0.13;;
75417;SDS011;63997;52.112;5.420;2024-01-16T03:40:16;4.90;;;0.33;;
75417;SDS011;63997;52.112;5.420;2024-01-16T03:42:43;2.45;;;0.30;;
75417;SDS011;63997;52.112;5.420;2024-01-16T03:45:09;1.40;;;0.35;;
75417;SDS011;63997;52.112;5.420;2024-01-16T03:47:38;3.38;;;0.30;;
75417;SDS011;63997;52.112;5.420;2024-01-16T03:50:05;1.02;;;0.28;;
75417;SDS011;63997;52.112;5.420;2024-01-16T03:52:32;2.43;;;0.40;;
75417;SDS011;63997;52.112;5.420;2024-01-16T03:54:58;1.55;;;0.40;;
75417;SDS011;63997;52.112;5.420;2024-01-16T03:57:25;3.10;;;0.30;;
75417;SDS011;63997;52.112;5.420;2024-01-16T03:59:51;3.72;;;0.25;;
75417;SDS011;63997;52.112;5.420;2024-01-16T04:02:18;4.05;;;0.30;;
75417;SDS011;63997;52.112;5.420;2024-01-16T04:04:44;0.77;;;0.10;;
75417;SDS011;63997;52.112;5.420;2024-01-16T04:07:11;3.53;;;0.45;;
75417;SDS011;63997;52.112;5.420;2024-01-16T04:09:37;0.20;;;0.13;;
75417;SDS011;63997;52.112;5.420;2024-01-16T04:12:04;1.50;;;0.20;;
75417;SDS011;63997;52.112;5.420;2024-01-16T04:14:31;1.08;;;0.03;;
75417;SDS011;63997;52.112;5.420;2024-01-16T04:16:58;0.00;;;0.00;;
75417;SDS011;63997;52.112;5.420;2024-01-16T04:19:24;1.38;;;0.15;;
75417;SDS011;63997;52.112;5.420;2024-01-16T04:21:51;3.60;;;0.40;;
75417;SDS011;63997;52.112;5.420;2024-01-16T04:24:17;0.82;;;0.20;;
75417;SDS011;63997;52.112;5.420;2024-01-16T04:26:44;0.55;;;0.15;;
75417;SDS011;63997;52.112;5.420;2024-01-16T04:29:11;0.73;;;0.20;;
75417;SDS011;63997;52.112;5.420;2024-01-16T04:31:38;2.22;;;0.20;;
75417;SDS011;63997;52.112;5.420;2024-01-16T04:34:07;1.60;;;0.20;;
75417;SDS011;63997;52.112;5.420;2024-01-16T04:36:34;2.13;;;0.20;;
75417;SDS011;63997;52.112;5.420;2024-01-16T04:39:00;0.77;;;0.30;;
75417;SDS011;63997;52.112;5.420;2024-01-16T04:41:27;1.23;;;0.10;;
75417;SDS011;63997;52.112;5.420;2024-01-16T04:43:54;2.42;;;0.20;;
75417;SDS011;63997;52.112;5.420;2024-01-16T04:46:20;4.00;;;0.20;;
75417;SDS011;63997;52.112;5.420;2024-01-16T04:48:47;4.05;;;0.32;;
75417;SDS011;63997;52.112;5.420;2024-01-16T04:51:13;1.08;;;0.30;;
75417;SDS011;63997;52.112;5.420;2024-01-16T04:53:40;1.80;;;0.30;;
75417;SDS011;63997;52.112;5.420;2024-01-16T04:56:07;3.58;;;0.30;;
75417;SDS011;63997;52.112;5.420;2024-01-16T04:58:33;3.97;;;0.25;;
75417;SDS011;63997;52.112;5.420;2024-01-16T05:01:00;6.55;;;0.40;;
75417;SDS011;63997;52.112;5.420;2024-01-16T05:03:26;1.65;;;0.50;;
75417;SDS011;63997;52.112;5.420;2024-01-16T05:05:53;1.40;;;0.40;;
75417;SDS011;63997;52.112;5.420;2024-01-16T05:08:20;5.40;;;0.30;;
75417;SDS011;63997;52.112;5.420;2024-01-16T05:10:47;6.60;;;0.57;;
75417;SDS011;63997;52.112;5.420;2024-01-16T05:13:13;2.08;;;0.63;;
75417;SDS011;63997;52.112;5.420;2024-01-16T05:15:40;1.13;;;0.40;;
75417;SDS011;63997;52.112;5.420;2024-01-16T05:18:08;1.60;;;0.50;;
75417;SDS011;63997;52.112;5.420;2024-01-16T05:20:35;1.35;;;0.30;;
75417;SDS011;63997;52.112;5.420;2024-01-16T05:23:02;1.30;;;0.50;;
75417;SDS011;63997;52.112;5.420;2024-01-16T05:25:29;1.67;;;0.47;;
75417;SDS011;63997;52.112;5.420;2024-01-16T05:27:56;3.65;;;0.38;;
75417;SDS011;63997;52.112;5.420;2024-01-16T05:30:22;1.43;;;0.30;;
75417;SDS011;63997;52.112;5.420;2024-01-16T05:32:49;0.68;;;0.20;;
75417;SDS011;63997;52.112;5.420;2024-01-16T05:35:15;6.53;;;0.80;;
75417;SDS011;63997;52.112;5.420;2024-01-16T05:37:42;1.05;;;0.55;;
75417;SDS011;63997;52.112;5.420;2024-01-16T05:40:09;2.35;;;0.68;;
75417;SDS011;63997;52.112;5.420;2024-01-16T05:42:36;1.27;;;0.70;;
75417;SDS011;63997;52.112;5.420;2024-01-16T05:45:04;1.75;;;0.50;;
75417;SDS011;63997;52.112;5.420;2024-01-16T05:47:31;4.40;;;0.60;;
75417;SDS011;63997;52.112;5.420;2024-01-16T05:49:57;1.73;;;0.50;;
75417;SDS011;63997;52.112;5.420;2024-01-16T05:52:24;1.10;;;0.75;;
75417;SDS011;63997;52.112;5.420;2024-01-16T05:54:50;2.67;;;0.80;;
75417;SDS011;63997;52.112;5.420;2024-01-16T05:57:17;2.10;;;0.73;;
75417;SDS011;63997;52.112;5.420;2024-01-16T05:59:43;5.10;;;0.73;;
75417;SDS011;63997;52.112;5.420;2024-01-16T06:02:10;2.13;;;0.35;;
75417;SDS011;63997;52.112;5.420;2024-01-16T06:04:37;1.35;;;0.77;;
75417;SDS011;63997;52.112;5.420;2024-01-16T06:07:03;2.60;;;0.70;;
75417;SDS011;63997;52.112;5.420;2024-01-16T06:09:33;3.70;;;1.17;;
75417;SDS011;63997;52.112;5.420;2024-01-16T06:12:04;2.47;;;0.82;;
75417;SDS011;63997;52.112;5.420;2024-01-16T06:14:30;3.28;;;0.73;;
75417;SDS011;63997;52.112;5.420;2024-01-16T06:16:57;2.22;;;1.30;;
75417;SDS011;63997;52.112;5.420;2024-01-16T06:19:23;2.03;;;0.60;;
75417;SDS011;63997;52.112;5.420;2024-01-16T06:21:50;3.10;;;0.82;;
75417;SDS011;63997;52.112;5.420;2024-01-16T06:24:16;6.32;;;0.90;;
75417;SDS011;63997;52.112;5.420;2024-01-16T06:26:43;4.55;;;1.00;;
75417;SDS011;63997;52.112;5.420;2024-01-16T06:29:09;2.05;;;0.90;;
75417;SDS011;63997;52.112;5.420;2024-01-16T06:31:53;1.90;;;0.77;;
75417;SDS011;63997;52.112;5.420;2024-01-16T06:34:20;4.15;;;1.10;;
75417;SDS011;63997;52.112;5.420;2024-01-16T06:36:46;3.83;;;0.68;;
75417;SDS011;63997;52.112;5.420;2024-01-16T06:39:13;3.92;;;1.30;;
75417;SDS011;63997;52.112;5.420;2024-01-16T06:41:43;4.15;;;0.90;;
75417;SDS011;63997;52.112;5.420;2024-01-16T06:44:09;2.03;;;0.90;;
75417;SDS011;63997;52.112;5.420;2024-01-16T06:46:36;2.90;;;0.70;;
75417;SDS011;63997;52.112;5.420;2024-01-16T06:49:03;4.43;;;0.80;;
75417;SDS011;63997;52.112;5.420;2024-01-16T06:51:30;2.63;;;1.00;;
75417;SDS011;63997;52.112;5.420;2024-01-16T06:53:56;3.83;;;1.38;;
75417;SDS011;63997;52.112;5.420;2024-01-16T06:56:23;5.83;;;1.10;;
75417;SDS011;63997;52.112;5.420;2024-01-16T06:58:50;4.78;;;1.17;;
75417;SDS011;63997;52.112;5.420;2024-01-16T07:01:17;3.78;;;1.30;;
75417;SDS011;63997;52.112;5.420;2024-01-16T07:03:44;7.75;;;2.05;;
75417;SDS011;63997;52.112;5.420;2024-01-16T07:06:11;4.80;;;1.92;;
75417;SDS011;63997;52.112;5.420;2024-01-16T07:08:39;3.07;;;1.60;;
75417;SDS011;63997;52.112;5.420;2024-01-16T07:11:06;5.25;;;1.90;;
75417;SDS011;63997;52.112;5.420;2024-01-16T07:13:35;3.25;;;2.28;;
75417;SDS011;63997;52.112;5.420;2024-01-16T07:16:01;4.75;;;2.38;;
75417;SDS011;63997;52.112;5.420;2024-01-16T07:18:27;6.35;;;2.50;;
75417;SDS011;63997;52.112;5.420;2024-01-16T07:20:54;6.10;;;2.67;;
75417;SDS011;63997;52.112;5.420;2024-01-16T07:23:21;6.50;;;3.25;;
75417;SDS011;63997;52.112;5.420;2024-01-16T07:25:48;8.52;;;3.25;;
75417;SDS011;63997;52.112;5.420;2024-01-16T07:28:14;4.57;;;3.00;;
75417;SDS011;63997;52.112;5.420;2024-01-16T07:30:41;6.32;;;3.45;;
75417;SDS011;63997;52.112;5.420;2024-01-16T07:33:07;13.10;;;3.90;;
75417;SDS011;63997;52.112;5.420;2024-01-16T07:35:34;4.63;;;3.10;;
75417;SDS011;63997;52.112;5.420;2024-01-16T07:38:01;6.63;;;2.90;;
75417;SDS011;63997;52.112;5.420;2024-01-16T07:40:30;5.57;;;3.63;;
75417;SDS011;63997;52.112;5.420;2024-01-16T07:42:57;6.25;;;3.22;;
75417;SDS011;63997;52.112;5.420;2024-01-16T07:45:24;6.60;;;3.80;;
75417;SDS011;63997;52.112;5.420;2024-01-16T07:47:50;8.27;;;2.97;;
75417;SDS011;63997;52.112;5.420;2024-01-16T07:50:17;6.13;;;3.05;;
75417;SDS011;63997;52.112;5.420;2024-01-16T07:52:44;8.50;;;3.05;;
75417;SDS011;63997;52.112;5.420;2024-01-16T07:55:10;8.75;;;3.50;;
75417;SDS011;63997;52.112;5.420;2024-01-16T07:57:37;7.20;;;3.93;;
75417;SDS011;63997;52.112;5.420;2024-01-16T08:00:03;6.97;;;3.35;;
75417;SDS011;63997;52.112;5.420;2024-01-16T08:02:32;5.05;;;3.03;;
75417;SDS011;63997;52.112;5.420;2024-01-16T08:05:00;4.53;;;2.90;;
75417;SDS011;63997;52.112;5.420;2024-01-16T08:07:27;7.90;;;3.30;;
75417;SDS011;63997;52.112;5.420;2024-01-16T08:09:53;10.87;;;3.47;;
75417;SDS011;63997;52.112;5.420;2024-01-16T08:12:20;11.23;;;3.13;;
75417;SDS011;63997;52.112;5.420;2024-01-16T08:14:46;4.47;;;2.90;;
75417;SDS011;63997;52.112;5.420;2024-01-16T08:17:13;9.55;;;3.10;;
75417;SDS011;63997;52.112;5.420;2024-01-16T08:19:41;9.13;;;3.70;;
75417;SDS011;63997;52.112;5.420;2024-01-16T08:22:07;15.80;;;3.80;;
75417;SDS011;63997;52.112;5.420;2024-01-16T08:24:34;6.57;;;3.70;;
75417;SDS011;63997;52.112;5.420;2024-01-16T08:27:01;11.45;;;4.38;;
75417;SDS011;63997;52.112;5.420;2024-01-16T08:29:29;11.80;;;3.53;;
75417;SDS011;63997;52.112;5.420;2024-01-16T08:31:55;8.38;;;3.58;;
75417;SDS011;63997;52.112;5.420;2024-01-16T08:34:22;9.07;;;2.90;;
75417;SDS011;63997;52.112;5.420;2024-01-16T08:36:49;8.27;;;2.47;;
75417;SDS011;63997;52.112;5.420;2024-01-16T08:39:15;5.88;;;2.67;;
75417;SDS011;63997;52.112;5.420;2024-01-16T08:41:42;12.02;;;2.95;;
75417;SDS011;63997;52.112;5.420;2024-01-16T08:44:11;4.97;;;2.30;;
75417;SDS011;63997;52.112;5.420;2024-01-16T08:46:37;17.53;;;3.40;;
75417;SDS011;63997;52.112;5.420;2024-01-16T08:49:04;7.60;;;2.13;;
75417;SDS011;63997;52.112;5.420;2024-01-16T08:51:31;5.95;;;1.83;;
75417;SDS011;63997;52.112;5.420;2024-01-16T08:53:57;7.07;;;1.73;;
75417;SDS011;63997;52.112;5.420;2024-01-16T08:56:24;3.58;;;2.22;;
75417;SDS011;63997;52.112;5.420;2024-01-16T08:58:50;5.57;;;2.00;;
75417;SDS011;63997;52.112;5.420;2024-01-16T09:01:17;8.93;;;2.00;;
75417;SDS011;63997;52.112;5.420;2024-01-16T09:03:43;8.88;;;2.00;;
75417;SDS011;63997;52.112;5.420;2024-01-16T09:06:10;3.88;;;1.73;;
75417;SDS011;63997;52.112;5.420;2024-01-16T09:08:37;4.18;;;2.50;;
75417;SDS011;63997;52.112;5.420;2024-01-16T09:11:04;5.37;;;1.47;;
75417;SDS011;63997;52.112;5.420;2024-01-16T09:13:30;6.30;;;1.90;;
75417;SDS011;63997;52.112;5.420;2024-01-16T09:15:57;4.85;;;1.42;;
75417;SDS011;63997;52.112;5.420;2024-01-16T09:18:24;4.30;;;1.35;;
75417;SDS011;63997;52.112;5.420;2024-01-16T09:20:50;4.15;;;1.60;;
75417;SDS011;63997;52.112;5.420;2024-01-16T09:23:17;8.03;;;1.70;;
75417;SDS011;63997;52.112;5.420;2024-01-16T09:25:44;3.88;;;1.77;;
75417;SDS011;63997;52.112;5.420;2024-01-16T09:28:13;3.00;;;1.23;;
75417;SDS011;63997;52.112;5.420;2024-01-16T09:30:41;4.97;;;1.00;;
75417;SDS011;63997;52.112;5.420;2024-01-16T09:33:08;4.90;;;1.23;;
75417;SDS011;63997;52.112;5.420;2024-01-16T09:35:36;5.63;;;1.20;;
75417;SDS011;63997;52.112;5.420;2024-01-16T09:38:03;3.55;;;1.58;;
75417;SDS011;63997;52.112;5.420;2024-01-16T09:40:33;2.00;;;1.38;;
75417;SDS011;63997;52.112;5.420;2024-01-16T09:43:01;2.97;;;1.17;;
75417;SDS011;63997;52.112;5.420;2024-01-16T09:45:28;4.93;;;1.60;;
75417;SDS011;63997;52.112;5.420;2024-01-16T09:47:56;3.43;;;1.37;;
75417;SDS011;63997;52.112;5.420;2024-01-16T09:50:22;3.60;;;1.13;;
75417;SDS011;63997;52.112;5.420;2024-01-16T09:52:49;4.65;;;1.30;;
75417;SDS011;63997;52.112;5.420;2024-01-16T09:55:16;3.08;;;1.35;;
75417;SDS011;63997;52.112;5.420;2024-01-16T09:57:44;5.55;;;1.60;;
75417;SDS011;63997;52.112;5.420;2024-01-16T10:00:12;12.13;;;1.50;;
75417;SDS011;63997;52.112;5.420;2024-01-16T10:02:39;9.18;;;1.45;;
75417;SDS011;63997;52.112;5.420;2024-01-16T10:05:09;7.20;;;1.50;;
75417;SDS011;63997;52.112;5.420;2024-01-16T10:07:38;5.50;;;1.42;;
75417;SDS011;63997;52.112;5.420;2024-01-16T10:10:05;5.05;;;1.98;;
75417;SDS011;63997;52.112;5.420;2024-01-16T10:12:33;5.93;;;1.13;;
75417;SDS011;63997;52.112;5.420;2024-01-16T10:14:59;3.85;;;1.23;;
75417;SDS011;63997;52.112;5.420;2024-01-16T10:17:36;9.20;;;2.35;;
75417;SDS011;63997;52.112;5.420;2024-01-16T10:20:04;7.75;;;1.77;;
75417;SDS011;63997;52.112;5.420;2024-01-16T10:22:32;8.57;;;1.90;;
75417;SDS011;63997;52.112;5.420;2024-01-16T10:27:37;1.90;;;1.10;;
75417;SDS011;63997;52.112;5.420;2024-01-16T10:30:05;5.55;;;1.95;;
75417;SDS011;63997;52.112;5.420;2024-01-16T10:32:36;3.15;;;1.50;;
75417;SDS011;63997;52.112;5.420;2024-01-16T10:35:14;2.80;;;1.35;;
75417;SDS011;63997;52.112;5.420;2024-01-16T10:37:43;7.17;;;2.30;;
75417;SDS011;63997;52.112;5.420;2024-01-16T10:40:14;4.20;;;1.45;;
75417;SDS011;63997;52.112;5.420;2024-01-16T10:42:42;6.40;;;1.60;;
75417;SDS011;63997;52.112;5.420;2024-01-16T10:45:15;13.23;;;1.30;;
75417;SDS011;63997;52.112;5.420;2024-01-16T10:47:45;5.88;;;1.75;;
75417;SDS011;63997;52.112;5.420;2024-01-16T10:50:13;8.80;;;1.63;;
75417;SDS011;63997;52.112;5.420;2024-01-16T10:52:42;4.10;;;1.20;;
75417;SDS011;63997;52.112;5.420;2024-01-16T10:55:19;1.50;;;1.10;;
75417;SDS011;63997;52.112;5.420;2024-01-16T10:57:50;2.05;;;0.90;;
75417;SDS011;63997;52.112;5.420;2024-01-16T11:00:18;4.38;;;1.73;;
75417;SDS011;63997;52.112;5.420;2024-01-16T11:02:50;3.43;;;1.60;;
75417;SDS011;63997;52.112;5.420;2024-01-16T11:05:24;1.60;;;0.95;;
75417;SDS011;63997;52.112;5.420;2024-01-16T11:07:54;4.38;;;1.67;;
75417;SDS011;63997;52.112;5.420;2024-01-16T11:10:22;4.45;;;1.48;;
75417;SDS011;63997;52.112;5.420;2024-01-16T11:12:51;4.65;;;1.33;;
75417;SDS011;63997;52.112;5.420;2024-01-16T11:15:18;3.43;;;1.10;;
75417;SDS011;63997;52.112;5.420;2024-01-16T11:17:45;2.47;;;0.73;;
75417;SDS011;63997;52.112;5.420;2024-01-16T11:20:13;3.50;;;0.80;;
75417;SDS011;63997;52.112;5.420;2024-01-16T11:23:01;3.05;;;0.90;;
75417;SDS011;63997;52.112;5.420;2024-01-16T11:25:32;5.57;;;1.40;;
75417;SDS011;63997;52.112;5.420;2024-01-16T11:28:09;1.83;;;1.00;;
75417;SDS011;63997;52.112;5.420;2024-01-16T11:30:42;3.28;;;0.68;;
75417;SDS011;63997;52.112;5.420;2024-01-16T11:35:59;6.93;;;0.80;;
75417;SDS011;63997;52.112;5.420;2024-01-16T11:38:27;5.70;;;0.93;;
75417;SDS011;63997;52.112;5.420;2024-01-16T11:40:56;2.10;;;0.70;;
75417;SDS011;63997;52.112;5.420;2024-01-16T11:48:27;4.28;;;0.88;;
75417;SDS011;63997;52.112;5.420;2024-01-16T11:50:54;4.30;;;0.90;;
75417;SDS011;63997;52.112;5.420;2024-01-16T12:01:28;2.55;;;1.13;;
75417;SDS011;63997;52.112;5.420;2024-01-16T12:04:02;5.18;;;1.40;;
75417;SDS011;63997;52.112;5.420;2024-01-16T12:06:33;5.97;;;1.00;;
75417;SDS011;63997;52.112;5.420;2024-01-16T12:09:11;2.10;;;0.77;;
75417;SDS011;63997;52.112;5.420;2024-01-16T12:11:41;4.65;;;1.20;;
75417;SDS011;63997;52.112;5.420;2024-01-16T12:14:12;6.00;;;1.05;;
75417;SDS011;63997;52.112;5.420;2024-01-16T12:16:38;2.60;;;1.02;;
75417;SDS011;63997;52.112;5.420;2024-01-16T12:19:07;2.90;;;0.90;;
75417;SDS011;63997;52.112;5.420;2024-01-16T12:21:41;3.28;;;1.10;;
75417;SDS011;63997;52.112;5.420;2024-01-16T12:24:10;2.85;;;1.17;;
75417;SDS011;63997;52.112;5.420;2024-01-16T12:26:43;2.85;;;1.42;;
75417;SDS011;63997;52.112;5.420;2024-01-16T12:29:10;2.28;;;0.70;;
75417;SDS011;63997;52.112;5.420;2024-01-16T12:31:36;3.87;;;1.13;;
75417;SDS011;63997;52.112;5.420;2024-01-16T12:34:06;7.10;;;1.08;;
75417;SDS011;63997;52.112;5.420;2024-01-16T12:36:36;4.35;;;1.00;;
75417;SDS011;63997;52.112;5.420;2024-01-16T12:39:04;3.05;;;1.27;;
75417;SDS011;63997;52.112;5.420;2024-01-16T12:41:32;4.20;;;1.45;;
75417;SDS011;63997;52.112;5.420;2024-01-16T12:44:08;3.37;;;1.33;;
75417;SDS011;63997;52.112;5.420;2024-01-16T12:46:42;7.40;;;1.50;;
75417;SDS011;63997;52.112;5.420;2024-01-16T12:49:09;4.13;;;2.05;;
75417;SDS011;63997;52.112;5.420;2024-01-16T12:51:38;4.20;;;1.08;;
75417;SDS011;63997;52.112;5.420;2024-01-16T12:54:14;4.07;;;1.50;;
75417;SDS011;63997;52.112;5.420;2024-01-16T12:56:43;3.80;;;2.00;;
75417;SDS011;63997;52.112;5.420;2024-01-16T12:59:13;3.75;;;1.38;;
75417;SDS011;63997;52.112;5.420;2024-01-16T13:01:41;2.17;;;1.38;;
75417;SDS011;63997;52.112;5.420;2024-01-16T13:04:12;5.05;;;1.80;;
75417;SDS011;63997;52.112;5.420;2024-01-16T13:06:45;6.72;;;1.85;;
75417;SDS011;63997;52.112;5.420;2024-01-16T13:09:13;7.57;;;1.53;;
75417;SDS011;63997;52.112;5.420;2024-01-16T13:11:53;5.15;;;1.33;;
75417;SDS011;63997;52.112;5.420;2024-01-16T13:14:22;3.17;;;1.65;;
75417;SDS011;63997;52.112;5.420;2024-01-16T13:16:50;4.22;;;1.92;;
75417;SDS011;63997;52.112;5.420;2024-01-16T13:19:24;7.03;;;1.33;;
75417;SDS011;63997;52.112;5.420;2024-01-16T13:21:52;7.27;;;1.30;;
75417;SDS011;63997;52.112;5.420;2024-01-16T13:24:20;4.18;;;1.45;;
75417;SDS011;63997;52.112;5.420;2024-01-16T13:26:48;4.15;;;1.48;;
75417;SDS011;63997;52.112;5.420;2024-01-16T13:29:15;2.38;;;1.00;;
75417;SDS011;63997;52.112;5.420;2024-01-16T13:31:42;7.07;;;1.70;;
75417;SDS011;63997;52.112;5.420;2024-01-16T13:34:10;4.77;;;1.87;;
75417;SDS011;63997;52.112;5.420;2024-01-16T13:36:37;3.72;;;1.38;;
75417;SDS011;63997;52.112;5.420;2024-01-16T13:39:23;1.98;;;1.20;;
75417;SDS011;63997;52.112;5.420;2024-01-16T13:41:51;7.55;;;1.27;;
75417;SDS011;63997;52.112;5.420;2024-01-16T13:44:18;3.75;;;1.17;;
75417;SDS011;63997;52.112;5.420;2024-01-16T13:46:45;4.10;;;1.23;;
75417;SDS011;63997;52.112;5.420;2024-01-16T13:49:30;4.97;;;1.27;;
75417;SDS011;63997;52.112;5.420;2024-01-16T13:52:11;4.07;;;1.50;;
75417;SDS011;63997;52.112;5.420;2024-01-16T13:54:37;3.47;;;1.33;;
75417;SDS011;63997;52.112;5.420;2024-01-16T13:57:05;3.22;;;1.05;;
75417;SDS011;63997;52.112;5.420;2024-01-16T13:59:36;1.57;;;1.13;;
75417;SDS011;63997;52.112;5.420;2024-01-16T14:02:03;4.38;;;1.50;;
75417;SDS011;63997;52.112;5.420;2024-01-16T14:04:31;6.25;;;1.50;;
75417;SDS011;63997;52.112;5.420;2024-01-16T14:06:58;2.50;;;1.17;;
75417;SDS011;63997;52.112;5.420;2024-01-16T14:09:39;4.07;;;1.08;;
75417;SDS011;63997;52.112;5.420;2024-01-16T14:12:08;6.40;;;1.70;;
75417;SDS011;63997;52.112;5.420;2024-01-16T14:14:35;3.90;;;1.58;;
75417;SDS011;63997;52.112;5.420;2024-01-16T14:17:02;8.15;;;1.58;;
75417;SDS011;63997;52.112;5.420;2024-01-16T14:19:29;4.53;;;1.20;;
75417;SDS011;63997;52.112;5.420;2024-01-16T14:21:57;9.50;;;1.65;;
75417;SDS011;63997;52.112;5.420;2024-01-16T14:24:24;5.13;;;1.43;;
75417;SDS011;63997;52.112;5.420;2024-01-16T14:26:51;4.28;;;1.25;;
75417;SDS011;63997;52.112;5.420;2024-01-16T14:29:17;2.92;;;1.35;;
75417;SDS011;63997;52.112;5.420;2024-01-16T14:31:45;3.28;;;1.27;;
75417;SDS011;63997;52.112;5.420;2024-01-16T14:34:15;2.85;;;1.27;;
75417;SDS011;63997;52.112;5.420;2024-01-16T14:36:42;5.03;;;1.60;;
75417;SDS011;63997;52.112;5.420;2024-01-16T14:39:09;5.22;;;1.20;;
75417;SDS011;63997;52.112;5.420;2024-01-16T14:41:48;2.25;;;1.27;;
75417;SDS011;63997;52.112;5.420;2024-01-16T14:44:15;7.25;;;1.20;;
75417;SDS011;63997;52.112;5.420;2024-01-16T14:46:41;3.58;;;1.27;;
75417;SDS011;63997;52.112;5.420;2024-01-16T14:49:14;4.73;;;1.30;;
75417;SDS011;63997;52.112;5.420;2024-01-16T14:51:41;4.63;;;1.27;;
75417;SDS011;63997;52.112;5.420;2024-01-16T14:54:07;4.22;;;1.23;;
75417;SDS011;63997;52.112;5.420;2024-01-16T14:56:35;5.97;;;1.50;;
75417;SDS011;63997;52.112;5.420;2024-01-16T14:59:03;5.18;;;2.33;;
75417;SDS011;63997;52.112;5.420;2024-01-16T15:01:30;3.43;;;1.20;;
75417;SDS011;63997;52.112;5.420;2024-01-16T15:03:57;3.85;;;1.30;;
75417;SDS011;63997;52.112;5.420;2024-01-16T15:06:24;8.63;;;1.50;;
75417;SDS011;63997;52.112;5.420;2024-01-16T15:08:53;3.03;;;1.10;;
75417;SDS011;63997;52.112;5.420;2024-01-16T15:11:20;5.97;;;1.73;;